Time;durP1;ratioP1;P1;durP2;ratioP2;P2;SDS_P1;SDS_P2;PMS_P1;PMS_P2;Temp;Humidity;BMP_temperature;BMP_pressure;BME280_temperature;BME280_humidity;BME280_pressure;Samples;Min_cycle;Max_cycle;Signal;HPM_P1;HPM_P2
2022/05/07 00:02:16;;;;;;;12.02;4.97;;;13.60;99.90;;;;;;5071436;28;20040;-68
2022/05/07 00:04:43;;;;;;;8.63;4.30;;;13.60;99.90;;;;;;5069342;28;20036;-68
2022/05/07 00:07:09;;;;;;;9.02;4.85;;;13.60;99.90;;;;;;5068303;28;20036;-68
2022/05/07 00:09:38;;;;;;;8.70;4.88;;;13.60;99.90;;;;;;5069412;28;20106;-67
2022/05/07 00:12:06;;;;;;;8.25;4.65;;;13.50;99.90;;;;;;5071417;28;20110;-67
2022/05/07 00:14:33;;;;;;;6.32;4.20;;;13.60;99.90;;;;;;5071368;28;20052;-68
2022/05/07 00:19:43;;;;;;;11.50;4.65;;;13.30;99.90;;;;;;5069163;28;20039;-68
2022/05/07 00:22:09;;;;;;;9.15;4.28;;;13.20;99.90;;;;;;5071769;28;20029;-68
2022/05/07 00:24:35;;;;;;;7.15;3.97;;;13.10;99.90;;;;;;5071540;28;20709;-68
2022/05/07 00:27:00;;;;;;;5.55;4.15;;;13.10;99.90;;;;;;5068757;28;20058;-68
2022/05/07 00:29:26;;;;;;;7.90;4.45;;;13.00;99.90;;;;;;5071527;28;20033;-68
2022/05/07 00:31:52;;;;;;;8.02;4.80;;;12.90;99.90;;;;;;5071621;28;20147;-68
2022/05/07 00:34:19;;;;;;;6.85;4.85;;;13.00;99.90;;;;;;5071535;28;20415;-68
2022/05/07 00:36:45;;;;;;;10.25;5.40;;;13.00;99.90;;;;;;5069761;28;20123;-68
2022/05/07 00:39:11;;;;;;;8.68;5.32;;;13.10;99.90;;;;;;5071175;28;20119;-68
2022/05/07 00:41:39;;;;;;;6.07;4.78;;;13.00;99.90;;;;;;5071397;28;20043;-67
2022/05/07 00:44:05;;;;;;;11.07;5.30;;;13.00;99.90;;;;;;5071417;28;20080;-68
2022/05/07 00:46:31;;;;;;;8.07;4.72;;;12.90;99.90;;;;;;5068610;28;20076;-68
2022/05/07 00:48:58;;;;;;;13.45;5.65;;;12.90;99.90;;;;;;5068245;28;20086;-69
2022/05/07 00:51:33;;;;;;;11.93;4.78;;;12.80;99.90;;;;;;5070250;28;20040;-68
2022/05/07 00:54:01;;;;;;;7.95;4.88;;;12.70;99.90;;;;;;5071372;28;20389;-68
2022/05/07 00:56:26;;;;;;;12.40;5.13;;;12.80;99.90;;;;;;5069604;28;20107;-68
2022/05/07 00:58:52;;;;;;;9.10;5.38;;;12.70;99.90;;;;;;5071343;28;20036;-68
2022/05/07 01:01:18;;;;;;;8.93;4.82;;;12.80;99.90;;;;;;5070874;28;20047;-68
2022/05/07 01:03:46;;;;;;;5.70;3.97;;;12.80;99.90;;;;;;5070921;28;20041;-68
2022/05/07 01:06:12;;;;;;;8.68;4.85;;;12.70;99.90;;;;;;5073902;28;20116;-68
2022/05/07 01:08:38;;;;;;;6.78;4.97;;;12.60;99.90;;;;;;5071361;28;20508;-68
2022/05/07 01:11:03;;;;;;;9.25;4.45;;;12.60;99.90;;;;;;5074661;28;20049;-68
2022/05/07 01:13:30;;;;;;;11.82;5.00;;;12.50;99.90;;;;;;5074778;28;20052;-68
2022/05/07 01:15:57;;;;;;;7.85;5.30;;;12.50;99.90;;;;;;5074548;28;20052;-68
2022/05/07 01:18:23;;;;;;;10.00;5.40;;;12.60;99.90;;;;;;5075483;28;20135;-68
2022/05/07 01:20:49;;;;;;;8.70;4.70;;;12.60;99.90;;;;;;5075753;28;20044;-68
2022/05/07 01:23:15;;;;;;;9.57;5.50;;;12.50;99.90;;;;;;5075896;28;20530;-68
2022/05/07 01:25:41;;;;;;;9.85;5.53;;;12.50;99.90;;;;;;5076195;28;20040;-68
2022/05/07 01:28:07;;;;;;;11.25;5.63;;;12.60;99.90;;;;;;5075827;28;20044;-68
2022/05/07 01:30:36;;;;;;;8.40;4.90;;;12.40;99.90;;;;;;5075867;28;20121;-68
2022/05/07 01:33:02;;;;;;;11.20;4.93;;;12.40;99.90;;;;;;5075896;28;20071;-68
2022/05/07 01:35:27;;;;;;;8.57;4.82;;;12.40;99.90;;;;;;5075708;28;20516;-68
2022/05/07 01:37:53;;;;;;;7.03;4.68;;;12.40;99.90;;;;;;5075840;28;20125;-68
2022/05/07 01:40:19;;;;;;;6.88;5.18;;;12.50;99.90;;;;;;5075632;28;20047;-68
2022/05/07 01:42:45;;;;;;;8.52;5.10;;;12.70;99.90;;;;;;5066871;28;20068;-68
2022/05/07 01:45:10;;;;;;;7.47;5.10;;;12.50;99.90;;;;;;5055344;28;20043;-68
2022/05/07 01:50:25;;;;;;;5.55;4.07;;;12.40;99.90;;;;;;5055434;28;20044;-68
2022/05/07 01:52:51;;;;;;;6.97;4.20;;;12.30;99.90;;;;;;5055327;28;20040;-68
2022/05/07 01:55:17;;;;;;;5.30;4.60;;;12.30;99.90;;;;;;5055191;28;20051;-68
2022/05/07 01:57:42;;;;;;;9.77;5.47;;;12.30;99.90;;;;;;5055024;28;20531;-69
2022/05/07 02:00:08;;;;;;;9.82;5.60;;;12.40;99.90;;;;;;5055122;28;20046;-68
2022/05/07 02:02:34;;;;;;;9.57;5.35;;;12.70;99.90;;;;;;5067226;28;20072;-68
2022/05/07 02:05:01;;;;;;;7.65;5.25;;;12.90;99.90;;;;;;5075295;28;20075;-67
2022/05/07 02:07:26;;;;;;;13.07;5.95;;;12.80;99.90;;;;;;5075147;28;20395;-67
2022/05/07 02:09:52;;;;;;;11.10;4.95;;;12.80;99.90;;;;;;5074686;28;20120;-67
2022/05/07 02:12:18;;;;;;;15.18;5.43;;;12.80;99.90;;;;;;5074947;28;20040;-67
2022/05/07 02:14:44;;;;;;;9.93;5.78;;;12.80;99.90;;;;;;5074904;28;20035;-67
2022/05/07 02:17:09;;;;;;;10.63;5.20;;;12.80;99.90;;;;;;5074178;28;20044;-68
2022/05/07 02:19:35;;;;;;;10.95;5.50;;;12.70;99.90;;;;;;5074038;28;20045;-67
2022/05/07 02:22:01;;;;;;;7.25;5.13;;;12.70;99.90;;;;;;5075008;28;20518;-68
2022/05/07 02:24:27;;;;;;;11.35;5.57;;;12.60;99.90;;;;;;5075110;28;20033;-67
2022/05/07 02:26:53;;;;;;;6.95;5.22;;;12.60;99.90;;;;;;5074516;28;20466;-68
2022/05/07 02:29:20;;;;;;;9.57;5.28;;;12.70;99.90;;;;;;5074440;28;20040;-67
2022/05/07 02:32:03;;;;;;;7.40;4.75;;;12.70;99.90;;;;;;5074770;28;20051;-67
2022/05/07 02:34:30;;;;;;;8.07;5.03;;;12.80;99.90;;;;;;5074805;28;20117;-68
2022/05/07 02:36:57;;;;;;;17.45;5.43;;;12.80;99.90;;;;;;5074073;28;20139;-68
2022/05/07 02:39:22;;;;;;;5.88;4.32;;;12.90;99.90;;;;;;5074188;28;20036;-67
2022/05/07 02:44:32;;;;;;;8.68;4.72;;;12.90;99.90;;;;;;5074312;28;20040;-68
2022/05/07 02:46:58;;;;;;;11.60;4.60;;;13.00;99.90;;;;;;5074330;28;20044;-68
2022/05/07 02:49:24;;;;;;;8.45;4.70;;;13.10;99.90;;;;;;5074311;28;20082;-69
2022/05/07 02:51:49;;;;;;;7.32;4.55;;;13.10;99.90;;;;;;5074167;28;20040;-69
2022/05/07 02:54:15;;;;;;;8.88;4.43;;;13.00;99.90;;;;;;5074250;28;20039;-69
2022/05/07 02:56:44;;;;;;;12.02;4.65;;;12.80;99.90;;;;;;5073801;28;20106;-69
2022/05/07 02:59:10;;;;;;;7.05;4.40;;;12.90;99.90;;;;;;5073850;28;20101;-69
2022/05/07 03:01:35;;;;;;;8.52;4.38;;;12.80;99.90;;;;;;5073898;28;20040;-69
2022/05/07 03:04:01;;;;;;;10.68;4.60;;;13.00;99.90;;;;;;5073870;28;20097;-69
2022/05/07 03:06:27;;;;;;;6.72;4.50;;;12.90;99.90;;;;;;5073716;28;20093;-69
2022/05/07 03:08:52;;;;;;;5.80;4.10;;;12.80;99.90;;;;;;5073827;28;20033;-68
2022/05/07 03:11:18;;;;;;;7.03;4.25;;;12.70;99.90;;;;;;5073761;28;20074;-68
2022/05/07 03:13:44;;;;;;;8.40;4.35;;;12.80;99.90;;;;;;5073883;28;20033;-68
2022/05/07 03:16:10;;;;;;;4.45;3.85;;;12.70;99.90;;;;;;5073680;28;20045;-68
2022/05/07 03:18:36;;;;;;;6.97;4.55;;;12.80;99.90;;;;;;5073679;28;20041;-68
2022/05/07 03:21:02;;;;;;;8.48;4.40;;;12.90;99.90;;;;;;5073549;28;20126;-68
2022/05/07 03:23:28;;;;;;;9.73;5.13;;;12.80;99.90;;;;;;5073541;28;20043;-68
2022/05/07 03:25:55;;;;;;;6.65;4.20;;;12.90;99.90;;;;;;5073490;28;20032;-68
2022/05/07 03:28:21;;;;;;;10.48;4.60;;;;;;;;;;5072770;28;20498;-69
2022/05/07 03:30:47;;;;;;;4.90;3.67;;;13.00;99.90;;;;;;5073477;28;20047;-67
2022/05/07 03:33:14;;;;;;;10.25;3.92;;;13.10;99.90;;;;;;5073423;28;20040;-67
2022/05/07 03:35:40;;;;;;;10.57;3.85;;;13.00;99.90;;;;;;5073402;28;20040;-68
2022/05/07 03:38:06;;;;;;;5.90;4.07;;;13.00;99.90;;;;;;5073449;28;20438;-67
2022/05/07 03:40:32;;;;;;;9.93;4.60;;;13.10;99.90;;;;;;5073262;28;20040;-67
2022/05/07 03:42:58;;;;;;;9.18;4.57;;;13.00;99.90;;;;;;5072836;28;20484;-67
2022/05/07 03:45:24;;;;;;;14.10;4.05;;;13.10;99.90;;;;;;5073170;28;20530;-67
2022/05/07 03:47:51;;;;;;;8.75;4.68;;;13.00;99.90;;;;;;5073052;28;20045;-67
2022/05/07 03:50:16;;;;;;;8.18;4.25;;;12.90;99.90;;;;;;5073014;28;20055;-67
2022/05/07 03:55:26;;;;;;;10.07;4.72;;;13.00;99.90;;;;;;5072916;28;20168;-67
2022/05/07 03:57:52;;;;;;;10.10;4.18;;;13.00;99.90;;;;;;5072721;28;20052;-67
2022/05/07 04:00:18;;;;;;;5.45;3.90;;;13.00;99.90;;;;;;5072922;28;20098;-68
2022/05/07 04:02:44;;;;;;;7.78;4.40;;;12.90;99.90;;;;;;5072968;28;20040;-67
2022/05/07 04:05:10;;;;;;;9.15;4.07;;;12.80;99.90;;;;;;5073099;28;20040;-67
2022/05/07 04:07:36;;;;;;;11.63;4.68;;;13.00;99.90;;;;;;5073109;28;20043;-67
2022/05/07 04:10:02;;;;;;;10.05;4.05;;;12.90;99.90;;;;;;5072915;28;20514;-67
2022/05/07 04:12:28;;;;;;;10.50;4.60;;;12.90;99.90;;;;;;5072883;28;20032;-67
2022/05/07 04:15:01;;;;;;;8.20;4.38;;;12.90;99.90;;;;;;5072645;28;20205;-69
2022/05/07 04:17:27;;;;;;;11.18;4.40;;;12.60;99.90;;;;;;5072642;28;20094;-67
2022/05/07 04:19:54;;;;;;;8.70;4.10;;;12.50;99.90;;;;;;5072769;28;20041;-67
2022/05/07 04:22:20;;;;;;;5.18;3.78;;;12.70;99.90;;;;;;5072873;28;20503;-68
2022/05/07 04:24:46;;;;;;;7.72;4.43;;;12.70;99.90;;;;;;5072915;28;20131;-68
2022/05/07 04:27:12;;;;;;;6.85;3.88;;;12.70;99.90;;;;;;5072592;28;20045;-67
2022/05/07 04:29:38;;;;;;;6.38;4.05;;;12.70;99.90;;;;;;5072434;28;20450;-68
2022/05/07 04:32:04;;;;;;;10.65;4.70;;;12.70;99.90;;;;;;5072925;28;20075;-67
2022/05/07 04:34:29;;;;;;;10.77;4.93;;;12.80;99.90;;;;;;5072830;28;20407;-67
2022/05/07 04:36:56;;;;;;;11.02;4.80;;;12.60;99.90;;;;;;5072689;28;20058;-67
2022/05/07 04:39:22;;;;;;;7.75;4.30;;;12.40;99.90;;;;;;5074462;28;20462;-67
2022/05/07 04:41:48;;;;;;;9.35;4.88;;;12.40;99.90;;;;;;5077030;28;20387;-67
2022/05/07 04:44:14;;;;;;;6.82;4.57;;;12.30;99.90;;;;;;5076671;28;20037;-67
2022/05/07 04:46:39;;;;;;;14.27;5.57;;;12.60;99.90;;;;;;5076736;28;20416;-67
2022/05/07 04:49:06;;;;;;;10.73;4.68;;;12.60;99.90;;;;;;5075111;28;20119;-68
2022/05/07 04:51:32;;;;;;;7.47;4.65;;;12.60;99.90;;;;;;5067685;28;20028;-67
2022/05/07 04:53:58;;;;;;;8.30;4.55;;;12.60;99.90;;;;;;5053922;28;20051;-67
2022/05/07 04:56:24;;;;;;;7.78;4.35;;;12.70;99.90;;;;;;5055904;28;20527;-67
2022/05/07 04:58:51;;;;;;;14.55;5.65;;;12.80;99.90;;;;;;5056382;28;20068;-67
2022/05/07 05:01:17;;;;;;;6.95;4.45;;;12.80;99.90;;;;;;5056051;28;20037;-67
2022/05/07 05:03:43;;;;;;;11.13;5.07;;;12.80;99.90;;;;;;5056106;28;20400;-67
2022/05/07 05:06:09;;;;;;;13.15;5.45;;;12.90;99.90;;;;;;5056428;28;20033;-68
2022/05/07 05:08:35;;;;;;;7.22;4.53;;;13.00;99.90;;;;;;5075853;28;20037;-67
2022/05/07 05:11:00;;;;;;;8.50;4.85;;;13.00;99.90;;;;;;5076074;28;20052;-67
2022/05/07 05:13:26;;;;;;;8.80;4.50;;;12.90;99.90;;;;;;5076000;28;20181;-67
2022/05/07 05:15:52;;;;;;;7.07;4.43;;;12.80;99.90;;;;;;5075723;28;20037;-67
2022/05/07 05:18:18;;;;;;;10.43;4.63;;;12.90;99.90;;;;;;5075693;28;20075;-67
2022/05/07 05:20:43;;;;;;;6.30;4.47;;;12.80;99.90;;;;;;5075788;28;20529;-67
2022/05/07 05:23:09;;;;;;;9.25;5.00;;;13.00;99.90;;;;;;5075852;28;20063;-67
2022/05/07 05:25:35;;;;;;;7.50;4.28;;;13.10;99.90;;;;;;5075825;28;20071;-67
2022/05/07 05:28:01;;;;;;;7.53;4.78;;;13.30;99.90;;;;;;5075685;28;20044;-67
2022/05/07 05:30:27;;;;;;;6.85;4.30;;;13.20;99.90;;;;;;5075681;28;20048;-67
2022/05/07 05:32:52;;;;;;;10.10;4.60;;;13.30;99.90;;;;;;5074413;28;20097;-69
2022/05/07 05:35:18;;;;;;;6.72;4.43;;;13.50;99.90;;;;;;5075603;28;20448;-69
2022/05/07 05:37:44;;;;;;;7.93;4.38;;;13.50;99.90;;;;;;5075403;28;20044;-69
2022/05/07 05:40:10;;;;;;;11.52;5.03;;;13.60;99.90;;;;;;5075467;28;20040;-68
2022/05/07 05:42:36;;;;;;;6.55;4.30;;;13.70;99.90;;;;;;5075518;28;20040;-68
2022/05/07 05:45:02;;;;;;;9.10;5.07;;;13.80;99.90;;;;;;5075513;28;20041;-68
2022/05/07 05:47:28;;;;;;;7.45;4.55;;;14.00;99.90;;;;;;5075820;28;20041;-67
2022/05/07 05:49:54;;;;;;;15.07;6.15;;;14.00;99.90;;;;;;5075440;28;20063;-67
2022/05/07 05:52:19;;;;;;;6.40;4.45;;;14.20;99.90;;;;;;5074831;28;20036;-68
2022/05/07 05:54:45;;;;;;;8.20;5.50;;;14.30;99.90;;;;;;5075472;28;20062;-68
2022/05/07 05:57:11;;;;;;;8.00;5.05;;;14.40;99.90;;;;;;5075010;28;20080;-68
2022/05/07 05:59:37;;;;;;;8.00;5.35;;;14.50;99.90;;;;;;5075115;28;20517;-68
2022/05/07 06:02:03;;;;;;;9.40;4.65;;;14.60;99.90;;;;;;5075067;28;20178;-68
2022/05/07 06:04:29;;;;;;;10.10;4.55;;;14.60;99.90;;;;;;5075000;28;20178;-68
2022/05/07 06:06:54;;;;;;;10.15;4.90;;;14.70;99.90;;;;;;5075236;28;20119;-68
2022/05/07 06:09:22;;;;;;;9.20;5.03;;;14.70;99.90;;;;;;5075166;28;20040;-68
2022/05/07 06:11:48;;;;;;;11.15;5.13;;;14.70;99.90;;;;;;5074535;28;20393;-68
2022/05/07 06:14:14;;;;;;;6.50;4.72;;;14.80;99.90;;;;;;5074591;28;20038;-67
2022/05/07 06:16:40;;;;;;;7.90;4.50;;;14.80;99.90;;;;;;5074524;28;20512;-68
2022/05/07 06:19:07;;;;;;;6.68;4.10;;;14.90;99.90;;;;;;5074630;28;20060;-68
2022/05/07 06:21:33;;;;;;;9.68;4.60;;;14.90;99.90;;;;;;5074706;28;20090;-68
2022/05/07 06:27:28;;;;;;;12.02;4.70;;;14.90;99.90;;;;;;5074690;28;20028;-68
2022/05/07 06:29:28;;;;;;;10.93;4.82;;;15.10;99.90;;;;;;5074593;28;20034;-67
2022/05/07 06:31:54;;;;;;;8.38;5.05;;;15.30;99.90;;;;;;5074442;28;20036;-67
2022/05/07 06:34:22;;;;;;;8.05;4.78;;;15.30;99.90;;;;;;5074302;28;20078;-68
2022/05/07 06:36:48;;;;;;;10.35;5.68;;;15.50;99.90;;;;;;5074373;28;20048;-68
2022/05/07 06:39:16;;;;;;;8.07;5.38;;;15.40;99.90;;;;;;5074576;28;20048;-68
2022/05/07 06:41:42;;;;;;;9.45;5.40;;;15.50;99.90;;;;;;5074355;28;20045;-68
2022/05/07 06:44:07;;;;;;;8.98;5.35;;;15.40;99.90;;;;;;5074362;28;20044;-68
2022/05/07 06:46:33;;;;;;;7.78;5.07;;;15.50;99.90;;;;;;5074279;28;20055;-68
2022/05/07 06:48:59;;;;;;;12.45;5.07;;;15.40;99.90;;;;;;5074273;28;20096;-67
2022/05/07 06:51:26;;;;;;;10.85;4.70;;;15.60;99.90;;;;;;5074106;28;20044;-68
2022/05/07 06:53:52;;;;;;;6.95;4.57;;;15.80;99.90;;;;;;5074033;28;20492;-67
2022/05/07 06:56:18;;;;;;;6.88;4.00;;;15.80;99.90;;;;;;5073889;28;20060;-67
2022/05/07 06:58:44;;;;;;;7.90;4.07;;;16.00;99.90;;;;;;5073376;28;20044;-67
2022/05/07 07:01:09;;;;;;;5.65;4.35;;;15.90;99.90;;;;;;5072972;28;20043;-67
2022/05/07 07:03:36;;;;;;;9.73;4.05;;;15.80;99.90;;;;;;5072893;28;20033;-67
2022/05/07 07:06:02;;;;;;;10.43;4.20;;;15.70;99.90;;;;;;5072453;28;20040;-67
2022/05/07 07:08:31;;;;;;;10.60;4.75;;;15.90;99.90;;;;;;5074162;28;20040;-68
2022/05/07 07:11:00;;;;;;;6.88;3.97;;;15.80;99.90;;;;;;5071996;28;20044;-68
2022/05/07 07:13:25;;;;;;;7.53;4.30;;;15.80;99.90;;;;;;5073711;28;20082;-68
2022/05/07 07:15:51;;;;;;;4.72;3.70;;;15.90;99.90;;;;;;5073522;28;20040;-68
2022/05/07 07:18:17;;;;;;;7.47;3.60;;;15.80;99.90;;;;;;5072188;28;20036;-68
2022/05/07 07:20:48;;;;;;;5.53;4.28;;;15.90;99.90;;;;;;5071713;28;20060;-68
2022/05/07 07:23:14;;;;;;;6.40;3.58;;;16.00;99.90;;;;;;5072957;28;20434;-68
2022/05/07 07:25:40;;;;;;;5.45;3.50;;;15.90;99.90;;;;;;5071353;28;20047;-68
2022/05/07 07:28:11;;;;;;;7.05;3.45;;;16.10;99.90;;;;;;5071260;28;20038;-70
2022/05/07 07:30:38;;;;;;;18.77;4.22;;;16.30;99.90;;;;;;5071442;28;20063;-69
2022/05/07 07:33:07;;;;;;;5.78;3.45;;;16.40;99.90;;;;;;5071193;28;20047;-68
2022/05/07 07:35:33;;;;;;;6.45;3.60;;;16.50;99.90;;;;;;5071269;28;20487;-68
2022/05/07 07:37:59;;;;;;;6.07;2.70;;;16.40;99.90;;;;;;5071104;28;20059;-69
2022/05/07 07:40:25;;;;;;;7.53;3.17;;;16.50;99.90;;;;;;5062635;28;20643;-69
2022/05/07 07:42:50;;;;;;;9.00;3.10;;;16.70;99.90;;;;;;5051219;28;20066;-69
2022/05/07 07:48:02;;;;;;;6.05;2.85;;;16.90;99.90;;;;;;5051410;28;20113;-68
2022/05/07 07:50:30;;;;;;;8.40;3.05;;;16.80;99.90;;;;;;5067591;28;20403;-69
2022/05/07 07:53:10;;;;;;;7.18;3.33;;;17.20;99.90;;;;;;5070494;28;20040;-70
2022/05/07 07:55:36;;;;;;;4.65;2.75;;;17.10;99.50;;;;;;5071029;28;20097;-69
2022/05/07 07:58:04;;;;;;;4.20;2.53;;;17.10;99.40;;;;;;5070208;28;20495;-69
2022/05/07 08:00:31;;;;;;;4.80;2.75;;;17.20;99.30;;;;;;5065070;28;20049;-71
2022/05/07 08:02:59;;;;;;;7.25;3.22;;;17.40;98.90;;;;;;5062094;28;20047;-69
2022/05/07 08:05:27;;;;;;;4.75;2.47;;;17.20;98.30;;;;;;5051976;28;20112;-68
2022/05/07 08:13:23;;;;;;;8.48;2.78;;;17.00;98.80;;;;;;5051258;28;20080;-68
2022/05/07 08:15:49;;;;;;;8.07;3.40;;;17.10;97.70;;;;;;5050943;28;20135;-68
2022/05/07 08:18:15;;;;;;;8.30;2.78;;;16.80;97.90;;;;;;5050397;28;20567;-67
2022/05/07 08:20:42;;;;;;;5.47;2.67;;;17.00;98.00;;;;;;5052352;28;20102;-68
2022/05/07 08:23:09;;;;;;;8.23;3.53;;;17.20;98.30;;;;;;5050314;28;20037;-69
2022/05/07 08:25:35;;;;;;;8.80;3.33;;;17.00;97.80;;;;;;5050638;28;20504;-69
2022/05/07 08:28:01;;;;;;;7.35;3.08;;;17.20;98.40;;;;;;5050513;28;20123;-68
2022/05/07 08:30:28;;;;;;;5.85;2.85;;;17.30;98.20;;;;;;5050225;28;20508;-68
2022/05/07 08:32:53;;;;;;;3.97;2.47;;;17.40;98.40;;;;;;5062047;28;20070;-68
2022/05/07 08:35:20;;;;;;;7.32;2.38;;;17.50;97.60;;;;;;5050257;28;20118;-68
2022/05/07 08:37:46;;;;;;;3.97;2.20;;;17.70;98.00;;;;;;5050109;28;20048;-68
2022/05/07 08:40:16;;;;;;;5.63;2.90;;;17.50;97.20;;;;;;5050456;28;20052;-68
2022/05/07 08:42:43;;;;;;;5.55;3.10;;;17.50;97.40;;;;;;5050595;28;20151;-68
2022/05/07 08:45:11;;;;;;;5.07;2.88;;;17.20;97.70;;;;;;5049955;28;20417;-68
2022/05/07 08:47:36;;;;;;;5.88;3.08;;;17.50;98.40;;;;;;5050491;28;20163;-68
2022/05/07 08:50:03;;;;;;;8.63;3.30;;;17.70;97.80;;;;;;5049857;28;20127;-68
2022/05/07 08:52:29;;;;;;;8.00;3.05;;;17.40;97.30;;;;;;5049882;28;20040;-68
2022/05/07 08:54:57;;;;;;;5.20;2.65;;;17.50;97.30;;;;;;5050198;28;20072;-68
2022/05/07 08:57:24;;;;;;;8.27;3.10;;;17.70;97.10;;;;;;5050544;28;20057;-69
2022/05/07 08:59:53;;;;;;;6.68;2.58;;;17.80;97.20;;;;;;5047885;28;20060;-69
2022/05/07 09:02:20;;;;;;;4.75;2.75;;;18.30;97.50;;;;;;5050251;28;20104;-69
2022/05/07 09:04:59;;;;;;;3.85;2.30;;;18.30;98.20;;;;;;5050461;28;20087;-71
2022/05/07 09:07:25;;;;;;;10.43;2.53;;;18.20;97.30;;;;;;5050415;28;20082;-69
2022/05/07 09:09:51;;;;;;;6.50;2.13;;;17.90;97.10;;;;;;5050424;28;20577;-68
2022/05/07 09:12:25;;;;;;;5.88;2.53;;;18.10;96.50;;;;;;5050004;28;20047;-69
2022/05/07 09:14:51;;;;;;;2.90;2.20;;;17.90;96.40;;;;;;5049662;28;20116;-68
2022/05/07 09:17:19;;;;;;;6.03;2.15;;;17.60;96.10;;;;;;5049350;28;20056;-68
2022/05/07 09:19:44;;;;;;;6.88;3.15;;;18.00;96.40;;;;;;5068413;28;20063;-70
2022/05/07 09:22:11;;;;;;;9.63;2.92;;;18.10;96.40;;;;;;5069910;28;20586;-69
2022/05/07 09:24:40;;;;;;;5.40;2.70;;;18.10;96.30;;;;;;5068812;28;20488;-68
2022/05/07 09:27:06;;;;;;;5.03;2.53;;;18.00;96.20;;;;;;5073548;28;20068;-68
2022/05/07 09:29:33;;;;;;;10.25;2.72;;;18.20;96.00;;;;;;5073188;28;20123;-68
2022/05/07 09:32:10;;;;;;;8.38;2.63;;;18.00;96.20;;;;;;5073841;28;20060;-67
2022/05/07 09:37:37;;;;;;;4.47;2.40;;;17.90;95.40;;;;;;5073324;28;20143;-68
2022/05/07 09:40:08;;;;;;;3.00;2.28;;;18.10;95.90;;;;;;5073420;28;20032;-68
2022/05/07 09:42:34;;;;;;;3.08;2.08;;;18.10;96.00;;;;;;5073897;28;20036;-68
2022/05/07 09:45:01;;;;;;;5.88;2.90;;;18.30;96.30;;;;;;5072247;28;20129;-68
2022/05/07 09:47:28;;;;;;;10.90;2.90;;;18.20;96.10;;;;;;5073381;28;20495;-68
2022/05/07 09:58:10;;;;;;;5.25;2.22;;;18.40;96.00;;;;;;5057640;28;20055;-68
2022/05/07 10:01:03;;;;;;;4.90;2.35;;;18.30;94.80;;;;;;5053234;28;20041;-68
2022/05/07 10:03:40;;;;;;;5.40;2.53;;;18.30;95.50;;;;;;5021695;28;20033;-68
2022/05/07 10:06:33;;;;;;;7.22;2.30;;;18.60;96.00;;;;;;5053772;28;20041;-68
2022/05/07 10:09:17;;;;;;;9.07;3.55;;;18.70;95.60;;;;;;5055260;28;20122;-68
2022/05/07 10:11:44;;;;;;;5.38;2.38;;;18.40;94.50;;;;;;5053313;28;20044;-68
2022/05/07 10:14:23;;;;;;;4.57;1.88;;;18.40;94.80;;;;;;5052656;28;20033;-68
2022/05/07 10:16:59;;;;;;;7.80;2.55;;;18.60;95.00;;;;;;5054043;28;20063;-68
2022/05/07 10:19:46;;;;;;;10.48;2.42;;;18.70;94.60;;;;;;5066725;28;20052;-68
2022/05/07 10:22:29;;;;;;;7.20;2.67;;;18.70;94.40;;;;;;5068746;28;20584;-68
2022/05/07 10:25:10;;;;;;;7.38;2.35;;;18.50;95.20;;;;;;5069401;28;20056;-69
2022/05/07 10:27:44;;;;;;;9.50;1.95;;;18.50;93.80;;;;;;5071739;28;20828;-68
2022/05/07 10:30:10;;;;;;;2.95;1.90;;;18.50;93.80;;;;;;5070595;28;20067;-68
2022/05/07 10:32:57;;;;;;;7.57;2.20;;;18.80;94.50;;;;;;5072193;28;20040;-68
2022/05/07 10:35:47;;;;;;;4.40;2.20;;;18.70;93.60;;;;;;5070920;28;20551;-68
2022/05/07 10:38:14;;;;;;;;;;;18.80;94.60;;;;;;5070770;28;20048;-68
2022/05/07 10:40:53;;;;;;;4.13;2.10;;;18.60;94.00;;;;;;5070927;28;19913;-68
2022/05/07 10:43:33;;;;;;;4.18;2.00;;;18.80;94.00;;;;;;5067533;28;20067;-68
2022/05/07 10:46:09;;;;;;;4.78;2.30;;;18.80;94.50;;;;;;5070046;28;20085;-68
2022/05/07 10:48:50;;;;;;;5.97;2.22;;;19.10;94.30;;;;;;5069046;28;20526;-69
2022/05/07 10:51:34;;;;;;;5.25;1.92;;;18.70;94.00;;;;;;5068606;28;20047;-68
2022/05/07 10:54:03;;;;;;;9.38;2.17;;;19.20;96.50;;;;;;5070205;28;20064;-68
2022/05/07 10:56:33;;;;;;;8.63;2.22;;;19.00;93.90;;;;;;5072118;28;20369;-68
2022/05/07 10:58:59;;;;;;;;;;;18.90;92.90;;;;;;5072112;28;20040;-68
2022/05/07 11:01:27;;;;;;;3.25;2.00;;;18.50;93.30;;;;;;5065680;28;19919;-68
2022/05/07 11:04:06;;;;;;;10.20;3.08;;;18.60;94.50;;;;;;5063157;28;20139;-67
2022/05/07 11:06:32;;;;;;;7.20;2.10;;;19.00;96.20;;;;;;5072781;28;20507;-68
2022/05/07 11:08:58;;;;;;;6.95;2.33;;;19.10;93.90;;;;;;5072055;28;20048;-68
2022/05/07 11:11:24;;;;;;;4.55;1.85;;;18.60;94.00;;;;;;5071873;28;20036;-68
2022/05/07 11:13:55;;;;;;;7.25;1.98;;;18.50;93.70;;;;;;5071454;28;20040;-68
2022/05/07 11:16:22;;;;;;;3.67;1.75;;;18.60;94.80;;;;;;5072150;28;20040;-68
2022/05/07 11:18:53;;;;;;;9.18;2.53;;;18.80;94.30;;;;;;5072029;28;20044;-69
2022/05/07 11:21:19;;;;;;;;;;;19.20;95.30;;;;;;5072059;28;20093;-69
2022/05/07 11:23:51;;;;;;;5.72;2.05;;;19.30;94.80;;;;;;5071771;28;20248;-69
2022/05/07 11:26:17;;;;;;;7.80;2.30;;;19.10;93.20;;;;;;5072733;28;20047;-69
2022/05/07 11:28:44;;;;;;;4.93;1.52;;;19.30;94.10;;;;;;5070047;28;20836;-69
2022/05/07 11:31:30;;;;;;;3.20;1.33;;;19.40;92.90;;;;;;5071221;28;20090;-69
2022/05/07 11:34:13;;;;;;;8.50;2.38;;;19.40;93.90;;;;;;5070268;28;20036;-68
2022/05/07 11:36:39;;;;;;;3.13;1.65;;;19.50;93.70;;;;;;5070820;28;20048;-70
2022/05/07 11:39:07;;;;;;;6.63;2.00;;;19.60;93.70;;;;;;5071217;28;20554;-68
2022/05/07 11:41:33;;;;;;;2.22;1.40;;;19.20;92.50;;;;;;5070651;28;20032;-68
2022/05/07 11:46:56;;;;;;;5.30;1.48;;;19.00;92.50;;;;;;5070448;28;20039;-67
2022/05/07 11:49:35;;;;;;;12.25;2.05;;;18.80;93.50;;;;;;5070518;28;20037;-68
2022/05/07 11:52:10;;;;;;;3.22;1.90;;;18.40;92.60;;;;;;5070915;28;20508;-68
2022/05/07 11:54:47;;;;;;;10.88;1.75;;;18.10;92.60;;;;;;5069689;28;20048;-68
2022/05/07 11:57:13;;;;;;;8.95;1.75;;;18.50;93.60;;;;;;5067384;28;20057;-70
2022/05/07 11:59:43;;;;;;;5.43;1.50;;;19.10;93.50;;;;;;5058945;28;20407;-69
2022/05/07 12:02:09;;;;;;;4.17;2.03;;;19.20;93.20;;;;;;5050175;28;20535;-69
2022/05/07 12:04:35;;;;;;;3.05;1.50;;;19.40;92.60;;;;;;5065974;28;20040;-69
2022/05/07 12:07:01;;;;;;;7.35;2.20;;;19.50;93.10;;;;;;5069956;28;20028;-69
2022/05/07 12:09:28;;;;;;;4.13;1.60;;;19.10;91.70;;;;;;5070475;28;20085;-69
2022/05/07 12:11:54;;;;;;;4.28;1.70;;;19.40;93.10;;;;;;5070326;28;20040;-69
2022/05/07 12:14:20;;;;;;;5.72;1.80;;;19.20;91.90;;;;;;5069626;28;20036;-69
2022/05/07 12:19:34;;;;;;;2.78;1.40;;;19.30;92.30;;;;;;5070395;28;20442;-69
2022/05/07 12:30:13;;;;;;;5.53;1.83;;;19.30;91.50;;;;;;5067736;28;20044;-70
2022/05/07 12:32:44;;;;;;;3.33;1.33;;;19.80;92.00;;;;;;5068806;28;20041;-70
2022/05/07 12:35:13;;;;;;;2.83;1.65;;;19.70;91.60;;;;;;5068231;28;20048;-69
2022/05/07 12:37:40;;;;;;;2.33;1.38;;;19.50;91.70;;;;;;5068521;28;20093;-70
2022/05/07 12:40:08;;;;;;;5.07;1.63;;;19.70;91.70;;;;;;5069565;28;20036;-68
2022/05/07 12:42:37;;;;;;;3.30;1.50;;;19.50;91.20;;;;;;5067911;28;20028;-69
2022/05/07 12:45:03;;;;;;;10.07;1.67;;;20.00;91.50;;;;;;5070025;28;20045;-70
2022/05/07 12:47:29;;;;;;;2.58;1.38;;;20.00;90.90;;;;;;5070237;28;20043;-70
2022/05/07 12:49:55;;;;;;;7.45;1.40;;;20.40;91.30;;;;;;5070452;28;20036;-69
2022/05/07 12:52:22;;;;;;;2.92;1.33;;;20.30;90.10;;;;;;5070683;28;20044;-70
2022/05/07 12:54:48;;;;;;;5.60;2.05;;;20.00;90.00;;;;;;5070508;28;20571;-69
2022/05/07 12:57:14;;;;;;;2.67;1.30;;;19.90;90.20;;;;;;5071076;28;20149;-69
2022/05/07 12:59:41;;;;;;;3.42;1.25;;;19.90;90.60;;;;;;5069132;28;20089;-69
2022/05/07 13:02:08;;;;;;;2.05;1.20;;;19.90;90.60;;;;;;5072684;28;20139;-69
2022/05/07 13:04:34;;;;;;;7.95;1.70;;;19.70;88.60;;;;;;5070852;28;20043;-69
2022/05/07 13:07:01;;;;;;;1.40;1.30;;;19.80;88.40;;;;;;5073613;28;20406;-70
2022/05/07 13:09:27;;;;;;;3.90;1.60;;;20.10;90.40;;;;;;5074093;28;20579;-69
2022/05/07 13:11:53;;;;;;;3.42;1.42;;;20.00;90.00;;;;;;5074173;28;20418;-69
2022/05/07 13:14:20;;;;;;;1.83;1.33;;;20.40;90.70;;;;;;5074845;28;20037;-69
2022/05/07 13:16:48;;;;;;;2.72;1.33;;;20.10;89.80;;;;;;5075459;28;20087;-69
2022/05/07 13:19:14;;;;;;;2.78;1.65;;;20.60;92.30;;;;;;5073096;28;20040;-69
2022/05/07 13:21:42;;;;;;;2.80;0.90;;;20.20;89.80;;;;;;5073666;28;20032;-70
2022/05/07 13:24:11;;;;;;;2.60;1.20;;;20.30;90.60;;;;;;5072532;28;20040;-69
2022/05/07 13:26:38;;;;;;;2.65;1.20;;;19.90;90.60;;;;;;5072894;28;20070;-70
2022/05/07 13:29:05;;;;;;;2.92;1.58;;;20.80;90.40;;;;;;5072294;28;20121;-69
2022/05/07 13:31:31;;;;;;;4.93;1.13;;;20.40;90.50;;;;;;5073675;28;20130;-69
2022/05/07 13:33:57;;;;;;;8.05;1.75;;;20.40;89.90;;;;;;5068662;28;20481;-70
2022/05/07 13:36:23;;;;;;;3.78;1.50;;;19.90;89.40;;;;;;5073337;28;20072;-70